sensor_id;sensor_type;location;lat;lon;timestamp;P1;durP1;ratioP1;P2;durP2;ratioP2
27013;SDS011;14556;52.222;4.510;2022-11-15T00:00:52;56.97;;;22.87;;
27013;SDS011;14556;52.222;4.510;2022-11-15T00:03:20;48.43;;;22.27;;
27013;SDS011;14556;52.222;4.510;2022-11-15T00:05:48;54.23;;;22.90;;
27013;SDS011;14556;52.222;4.510;2022-11-15T00:08:15;56.60;;;21.90;;
27013;SDS011;14556;52.222;4.510;2022-11-15T00:10:42;55.97;;;21.77;;
27013;SDS011;14556;52.222;4.510;2022-11-15T00:13:10;58.50;;;24.10;;
27013;SDS011;14556;52.222;4.510;2022-11-15T00:15:39;57.00;;;22.87;;
27013;SDS011;14556;52.222;4.510;2022-11-15T00:18:10;58.90;;;22.83;;
27013;SDS011;14556;52.222;4.510;2022-11-15T00:20:39;64.30;;;23.37;;
27013;SDS011;14556;52.222;4.510;2022-11-15T00:23:06;58.73;;;23.53;;
27013;SDS011;14556;52.222;4.510;2022-11-15T00:25:32;60.03;;;22.47;;
27013;SDS011;14556;52.222;4.510;2022-11-15T00:27:59;54.70;;;22.37;;
27013;SDS011;14556;52.222;4.510;2022-11-15T00:30:26;64.63;;;24.30;;
27013;SDS011;14556;52.222;4.510;2022-11-15T00:32:53;63.73;;;23.03;;
27013;SDS011;14556;52.222;4.510;2022-11-15T00:35:20;69.00;;;24.87;;
27013;SDS011;14556;52.222;4.510;2022-11-15T00:37:47;48.30;;;21.37;;
27013;SDS011;14556;52.222;4.510;2022-11-15T00:40:14;62.13;;;22.80;;
27013;SDS011;14556;52.222;4.510;2022-11-15T00:42:41;64.40;;;24.67;;
27013;SDS011;14556;52.222;4.510;2022-11-15T00:45:08;62.63;;;22.97;;
27013;SDS011;14556;52.222;4.510;2022-11-15T00:47:35;61.30;;;22.37;;
27013;SDS011;14556;52.222;4.510;2022-11-15T00:50:02;58.70;;;23.80;;
27013;SDS011;14556;52.222;4.510;2022-11-15T00:52:29;54.77;;;19.53;;
27013;SDS011;14556;52.222;4.510;2022-11-15T00:54:55;58.20;;;23.33;;
27013;SDS011;14556;52.222;4.510;2022-11-15T00:57:22;67.47;;;23.87;;
27013;SDS011;14556;52.222;4.510;2022-11-15T00:59:48;71.77;;;25.03;;
27013;SDS011;14556;52.222;4.510;2022-11-15T01:02:15;66.00;;;23.00;;
27013;SDS011;14556;52.222;4.510;2022-11-15T01:04:41;61.07;;;22.70;;
27013;SDS011;14556;52.222;4.510;2022-11-15T01:07:07;63.63;;;23.43;;
27013;SDS011;14556;52.222;4.510;2022-11-15T01:09:34;66.50;;;23.17;;
27013;SDS011;14556;52.222;4.510;2022-11-15T01:12:00;63.30;;;24.00;;
27013;SDS011;14556;52.222;4.510;2022-11-15T01:14:27;62.90;;;23.40;;
27013;SDS011;14556;52.222;4.510;2022-11-15T01:16:53;66.73;;;21.80;;
27013;SDS011;14556;52.222;4.510;2022-11-15T01:19:20;57.87;;;22.50;;
27013;SDS011;14556;52.222;4.510;2022-11-15T01:21:48;83.87;;;26.03;;
27013;SDS011;14556;52.222;4.510;2022-11-15T01:24:16;58.13;;;21.63;;
27013;SDS011;14556;52.222;4.510;2022-11-15T01:26:42;63.10;;;23.33;;
27013;SDS011;14556;52.222;4.510;2022-11-15T01:29:08;64.20;;;23.37;;
27013;SDS011;14556;52.222;4.510;2022-11-15T01:31:35;62.83;;;22.53;;
27013;SDS011;14556;52.222;4.510;2022-11-15T01:34:02;65.13;;;24.00;;
27013;SDS011;14556;52.222;4.510;2022-11-15T01:36:29;60.97;;;20.93;;
27013;SDS011;14556;52.222;4.510;2022-11-15T01:38:58;57.57;;;20.93;;
27013;SDS011;14556;52.222;4.510;2022-11-15T01:41:26;63.57;;;23.00;;
27013;SDS011;14556;52.222;4.510;2022-11-15T01:46:57;70.97;;;24.83;;
27013;SDS011;14556;52.222;4.510;2022-11-15T01:49:26;62.00;;;23.17;;
27013;SDS011;14556;52.222;4.510;2022-11-15T01:51:56;70.10;;;22.63;;
27013;SDS011;14556;52.222;4.510;2022-11-15T01:54:23;57.40;;;22.57;;
27013;SDS011;14556;52.222;4.510;2022-11-15T01:56:52;62.00;;;22.60;;
27013;SDS011;14556;52.222;4.510;2022-11-15T01:59:22;70.93;;;23.50;;
27013;SDS011;14556;52.222;4.510;2022-11-15T02:01:49;70.73;;;24.53;;
27013;SDS011;14556;52.222;4.510;2022-11-15T02:04:17;78.23;;;25.23;;
27013;SDS011;14556;52.222;4.510;2022-11-15T02:06:48;77.60;;;24.33;;
27013;SDS011;14556;52.222;4.510;2022-11-15T02:09:16;79.30;;;25.77;;
27013;SDS011;14556;52.222;4.510;2022-11-15T02:11:43;68.33;;;22.97;;
27013;SDS011;14556;52.222;4.510;2022-11-15T02:14:11;80.37;;;25.90;;
27013;SDS011;14556;52.222;4.510;2022-11-15T02:25:41;70.07;;;24.17;;
27013;SDS011;14556;52.222;4.510;2022-11-15T02:31:45;68.97;;;22.77;;
27013;SDS011;14556;52.222;4.510;2022-11-15T02:34:40;71.27;;;24.43;;
27013;SDS011;14556;52.222;4.510;2022-11-15T02:37:15;89.37;;;26.40;;
27013;SDS011;14556;52.222;4.510;2022-11-15T02:39:49;77.10;;;24.57;;
27013;SDS011;14556;52.222;4.510;2022-11-15T02:42:26;87.17;;;27.60;;
27013;SDS011;14556;52.222;4.510;2022-11-15T02:45:28;86.97;;;28.87;;
27013;SDS011;14556;52.222;4.510;2022-11-15T02:47:59;72.93;;;26.63;;
27013;SDS011;14556;52.222;4.510;2022-11-15T02:50:29;71.97;;;26.07;;
27013;SDS011;14556;52.222;4.510;2022-11-15T02:52:57;82.63;;;23.10;;
27013;SDS011;14556;52.222;4.510;2022-11-15T02:55:34;96.53;;;27.23;;
27013;SDS011;14556;52.222;4.510;2022-11-15T02:58:16;73.43;;;25.13;;
27013;SDS011;14556;52.222;4.510;2022-11-15T03:11:51;98.10;;;29.90;;
27013;SDS011;14556;52.222;4.510;2022-11-15T03:14:26;91.23;;;28.97;;
27013;SDS011;14556;52.222;4.510;2022-11-15T03:17:06;100.23;;;30.33;;
27013;SDS011;14556;52.222;4.510;2022-11-15T03:19:40;93.07;;;29.47;;
27013;SDS011;14556;52.222;4.510;2022-11-15T03:22:11;89.60;;;29.07;;
27013;SDS011;14556;52.222;4.510;2022-11-15T03:24:43;109.30;;;28.77;;
27013;SDS011;14556;52.222;4.510;2022-11-15T03:27:12;101.63;;;30.20;;
27013;SDS011;14556;52.222;4.510;2022-11-15T03:29:44;103.67;;;28.47;;
27013;SDS011;14556;52.222;4.510;2022-11-15T03:32:20;102.53;;;29.50;;
27013;SDS011;14556;52.222;4.510;2022-11-15T03:34:58;104.77;;;30.07;;
27013;SDS011;14556;52.222;4.510;2022-11-15T03:37:40;107.93;;;28.80;;
27013;SDS011;14556;52.222;4.510;2022-11-15T03:40:12;111.40;;;30.20;;
27013;SDS011;14556;52.222;4.510;2022-11-15T03:42:43;94.57;;;28.00;;
27013;SDS011;14556;52.222;4.510;2022-11-15T03:45:28;116.13;;;31.07;;
27013;SDS011;14556;52.222;4.510;2022-11-15T03:48:01;116.57;;;31.17;;
27013;SDS011;14556;52.222;4.510;2022-11-15T03:50:35;107.63;;;29.83;;
27013;SDS011;14556;52.222;4.510;2022-11-15T03:53:01;121.00;;;34.10;;
27013;SDS011;14556;52.222;4.510;2022-11-15T03:55:28;106.47;;;30.07;;
27013;SDS011;14556;52.222;4.510;2022-11-15T03:57:59;113.70;;;30.73;;
27013;SDS011;14556;52.222;4.510;2022-11-15T04:00:27;96.30;;;27.83;;
27013;SDS011;14556;52.222;4.510;2022-11-15T04:02:54;90.77;;;28.40;;
27013;SDS011;14556;52.222;4.510;2022-11-15T04:05:21;95.53;;;28.37;;
27013;SDS011;14556;52.222;4.510;2022-11-15T04:07:47;96.87;;;28.80;;
27013;SDS011;14556;52.222;4.510;2022-11-15T04:10:14;78.47;;;25.87;;
27013;SDS011;14556;52.222;4.510;2022-11-15T04:12:42;109.60;;;30.53;;
27013;SDS011;14556;52.222;4.510;2022-11-15T04:15:13;90.93;;;26.10;;
27013;SDS011;14556;52.222;4.510;2022-11-15T04:17:42;115.93;;;28.83;;
27013;SDS011;14556;52.222;4.510;2022-11-15T04:20:12;95.83;;;27.37;;
27013;SDS011;14556;52.222;4.510;2022-11-15T04:23:15;88.60;;;26.17;;
27013;SDS011;14556;52.222;4.510;2022-11-15T04:26:12;92.13;;;27.20;;
27013;SDS011;14556;52.222;4.510;2022-11-15T04:28:42;98.10;;;26.73;;
27013;SDS011;14556;52.222;4.510;2022-11-15T04:31:27;78.93;;;25.20;;
27013;SDS011;14556;52.222;4.510;2022-11-15T04:33:53;104.63;;;29.43;;
27013;SDS011;14556;52.222;4.510;2022-11-15T04:36:21;85.33;;;27.17;;
27013;SDS011;14556;52.222;4.510;2022-11-15T04:39:06;96.17;;;25.97;;
27013;SDS011;14556;52.222;4.510;2022-11-15T04:41:33;83.87;;;25.80;;
27013;SDS011;14556;52.222;4.510;2022-11-15T04:44:00;84.03;;;25.40;;
27013;SDS011;14556;52.222;4.510;2022-11-15T04:46:26;85.90;;;26.80;;
27013;SDS011;14556;52.222;4.510;2022-11-15T04:48:53;90.60;;;25.60;;
27013;SDS011;14556;52.222;4.510;2022-11-15T04:51:24;82.63;;;26.23;;
27013;SDS011;14556;52.222;4.510;2022-11-15T04:53:50;79.80;;;23.80;;
27013;SDS011;14556;52.222;4.510;2022-11-15T04:56:18;70.33;;;23.13;;
27013;SDS011;14556;52.222;4.510;2022-11-15T04:58:44;73.77;;;23.93;;
27013;SDS011;14556;52.222;4.510;2022-11-15T05:01:12;65.03;;;23.23;;
27013;SDS011;14556;52.222;4.510;2022-11-15T05:03:43;74.63;;;23.80;;
27013;SDS011;14556;52.222;4.510;2022-11-15T05:06:29;68.47;;;22.57;;
27013;SDS011;14556;52.222;4.510;2022-11-15T05:08:56;70.87;;;23.63;;
27013;SDS011;14556;52.222;4.510;2022-11-15T05:11:23;62.73;;;23.13;;
27013;SDS011;14556;52.222;4.510;2022-11-15T05:13:50;58.97;;;22.10;;
27013;SDS011;14556;52.222;4.510;2022-11-15T05:16:16;57.97;;;20.87;;
27013;SDS011;14556;52.222;4.510;2022-11-15T05:18:43;53.93;;;20.57;;
27013;SDS011;14556;52.222;4.510;2022-11-15T05:21:10;58.30;;;20.47;;
27013;SDS011;14556;52.222;4.510;2022-11-15T05:23:39;49.47;;;19.87;;
27013;SDS011;14556;52.222;4.510;2022-11-15T05:26:06;55.33;;;19.53;;
27013;SDS011;14556;52.222;4.510;2022-11-15T05:28:35;57.60;;;18.03;;
27013;SDS011;14556;52.222;4.510;2022-11-15T05:31:06;53.67;;;20.30;;
27013;SDS011;14556;52.222;4.510;2022-11-15T05:33:37;50.67;;;17.73;;
27013;SDS011;14556;52.222;4.510;2022-11-15T05:38:57;41.53;;;15.20;;
27013;SDS011;14556;52.222;4.510;2022-11-15T05:41:26;38.97;;;15.50;;
27013;SDS011;14556;52.222;4.510;2022-11-15T05:43:56;35.83;;;14.90;;
27013;SDS011;14556;52.222;4.510;2022-11-15T05:46:23;36.27;;;13.07;;
27013;SDS011;14556;52.222;4.510;2022-11-15T05:48:50;32.37;;;13.03;;
27013;SDS011;14556;52.222;4.510;2022-11-15T05:51:18;30.27;;;13.07;;
27013;SDS011;14556;52.222;4.510;2022-11-15T05:53:48;27.70;;;11.30;;
27013;SDS011;14556;52.222;4.510;2022-11-15T05:56:17;29.13;;;12.80;;
27013;SDS011;14556;52.222;4.510;2022-11-15T05:58:43;28.27;;;12.80;;
27013;SDS011;14556;52.222;4.510;2022-11-15T06:01:10;34.47;;;12.43;;
27013;SDS011;14556;52.222;4.510;2022-11-15T06:03:36;29.20;;;12.27;;
27013;SDS011;14556;52.222;4.510;2022-11-15T06:06:03;32.00;;;12.77;;
27013;SDS011;14556;52.222;4.510;2022-11-15T06:08:29;24.93;;;11.33;;
27013;SDS011;14556;52.222;4.510;2022-11-15T06:10:56;29.07;;;12.00;;
27013;SDS011;14556;52.222;4.510;2022-11-15T06:13:23;29.10;;;11.60;;
27013;SDS011;14556;52.222;4.510;2022-11-15T06:15:49;27.17;;;11.20;;
27013;SDS011;14556;52.222;4.510;2022-11-15T06:18:16;23.10;;;10.97;;
27013;SDS011;14556;52.222;4.510;2022-11-15T06:20:42;22.03;;;9.80;;
27013;SDS011;14556;52.222;4.510;2022-11-15T06:23:08;25.97;;;10.83;;
27013;SDS011;14556;52.222;4.510;2022-11-15T06:25:35;18.10;;;8.57;;
27013;SDS011;14556;52.222;4.510;2022-11-15T06:28:01;28.80;;;10.43;;
27013;SDS011;14556;52.222;4.510;2022-11-15T06:30:28;20.60;;;9.33;;
27013;SDS011;14556;52.222;4.510;2022-11-15T06:32:58;21.63;;;9.13;;
27013;SDS011;14556;52.222;4.510;2022-11-15T06:35:26;21.23;;;8.63;;
27013;SDS011;14556;52.222;4.510;2022-11-15T06:37:52;26.50;;;8.60;;
27013;SDS011;14556;52.222;4.510;2022-11-15T06:40:19;26.60;;;8.90;;
27013;SDS011;14556;52.222;4.510;2022-11-15T06:42:45;28.83;;;9.07;;
27013;SDS011;14556;52.222;4.510;2022-11-15T06:45:12;17.37;;;8.13;;
27013;SDS011;14556;52.222;4.510;2022-11-15T06:47:44;18.07;;;8.93;;
27013;SDS011;14556;52.222;4.510;2022-11-15T06:50:12;18.77;;;7.67;;
27013;SDS011;14556;52.222;4.510;2022-11-15T06:52:39;17.60;;;8.13;;
27013;SDS011;14556;52.222;4.510;2022-11-15T06:55:06;30.60;;;8.63;;
27013;SDS011;14556;52.222;4.510;2022-11-15T06:57:33;23.40;;;9.00;;
27013;SDS011;14556;52.222;4.510;2022-11-15T06:59:59;17.80;;;7.70;;
27013;SDS011;14556;52.222;4.510;2022-11-15T07:02:26;18.03;;;7.87;;
27013;SDS011;14556;52.222;4.510;2022-11-15T07:04:52;20.37;;;8.17;;
27013;SDS011;14556;52.222;4.510;2022-11-15T07:07:18;18.77;;;7.40;;
27013;SDS011;14556;52.222;4.510;2022-11-15T07:09:45;27.30;;;8.33;;
27013;SDS011;14556;52.222;4.510;2022-11-15T07:12:11;20.13;;;7.63;;
27013;SDS011;14556;52.222;4.510;2022-11-15T07:14:38;16.13;;;6.07;;
27013;SDS011;14556;52.222;4.510;2022-11-15T07:17:04;18.57;;;7.73;;
27013;SDS011;14556;52.222;4.510;2022-11-15T07:19:31;17.40;;;7.27;;
27013;SDS011;14556;52.222;4.510;2022-11-15T07:21:57;22.03;;;7.27;;
27013;SDS011;14556;52.222;4.510;2022-11-15T07:24:24;23.77;;;8.57;;
27013;SDS011;14556;52.222;4.510;2022-11-15T07:26:51;25.03;;;9.03;;
27013;SDS011;14556;52.222;4.510;2022-11-15T07:29:17;20.17;;;8.00;;
27013;SDS011;14556;52.222;4.510;2022-11-15T07:31:44;16.63;;;8.57;;
27013;SDS011;14556;52.222;4.510;2022-11-15T07:34:10;20.20;;;8.60;;
27013;SDS011;14556;52.222;4.510;2022-11-15T07:36:37;17.20;;;8.30;;
27013;SDS011;14556;52.222;4.510;2022-11-15T07:39:03;20.47;;;8.70;;
27013;SDS011;14556;52.222;4.510;2022-11-15T07:41:30;19.40;;;8.17;;
27013;SDS011;14556;52.222;4.510;2022-11-15T07:43:56;16.10;;;8.30;;
27013;SDS011;14556;52.222;4.510;2022-11-15T07:46:27;21.00;;;8.10;;
27013;SDS011;14556;52.222;4.510;2022-11-15T07:48:54;17.53;;;8.20;;
27013;SDS011;14556;52.222;4.510;2022-11-15T07:51:20;20.20;;;7.27;;
27013;SDS011;14556;52.222;4.510;2022-11-15T07:53:47;22.83;;;7.97;;
27013;SDS011;14556;52.222;4.510;2022-11-15T07:56:13;16.47;;;7.10;;
27013;SDS011;14556;52.222;4.510;2022-11-15T07:58:40;21.60;;;7.43;;
27013;SDS011;14556;52.222;4.510;2022-11-15T08:01:07;26.43;;;7.97;;
27013;SDS011;14556;52.222;4.510;2022-11-15T08:03:36;17.67;;;7.00;;
27013;SDS011;14556;52.222;4.510;2022-11-15T08:06:03;24.70;;;7.17;;
27013;SDS011;14556;52.222;4.510;2022-11-15T08:08:30;26.10;;;7.10;;
27013;SDS011;14556;52.222;4.510;2022-11-15T08:10:59;17.90;;;6.87;;
27013;SDS011;14556;52.222;4.510;2022-11-15T08:13:26;17.53;;;6.20;;
27013;SDS011;14556;52.222;4.510;2022-11-15T08:16:00;24.33;;;7.27;;
27013;SDS011;14556;52.222;4.510;2022-11-15T08:18:27;18.33;;;6.03;;
27013;SDS011;14556;52.222;4.510;2022-11-15T08:20:58;21.70;;;6.87;;
27013;SDS011;14556;52.222;4.510;2022-11-15T08:23:25;17.17;;;6.43;;
27013;SDS011;14556;52.222;4.510;2022-11-15T08:25:52;13.97;;;5.93;;
27013;SDS011;14556;52.222;4.510;2022-11-15T08:28:18;19.37;;;6.47;;
27013;SDS011;14556;52.222;4.510;2022-11-15T08:30:45;17.43;;;5.70;;
27013;SDS011;14556;52.222;4.510;2022-11-15T08:33:12;23.67;;;6.97;;
27013;SDS011;14556;52.222;4.510;2022-11-15T08:35:40;27.87;;;8.13;;
27013;SDS011;14556;52.222;4.510;2022-11-15T08:38:07;17.97;;;6.67;;
27013;SDS011;14556;52.222;4.510;2022-11-15T08:40:33;17.33;;;6.47;;
27013;SDS011;14556;52.222;4.510;2022-11-15T08:43:01;25.13;;;6.47;;
27013;SDS011;14556;52.222;4.510;2022-11-15T08:45:29;15.97;;;6.97;;
27013;SDS011;14556;52.222;4.510;2022-11-15T08:47:56;22.53;;;6.30;;
27013;SDS011;14556;52.222;4.510;2022-11-15T08:50:23;17.20;;;7.17;;
27013;SDS011;14556;52.222;4.510;2022-11-15T08:52:49;20.90;;;6.97;;
27013;SDS011;14556;52.222;4.510;2022-11-15T08:55:16;19.30;;;7.90;;
27013;SDS011;14556;52.222;4.510;2022-11-15T08:57:43;15.87;;;7.60;;
27013;SDS011;14556;52.222;4.510;2022-11-15T09:00:09;20.87;;;7.60;;
27013;SDS011;14556;52.222;4.510;2022-11-15T09:02:38;24.70;;;8.73;;
27013;SDS011;14556;52.222;4.510;2022-11-15T09:05:06;25.80;;;9.10;;
27013;SDS011;14556;52.222;4.510;2022-11-15T09:07:33;19.87;;;8.97;;
27013;SDS011;14556;52.222;4.510;2022-11-15T09:10:00;26.87;;;8.03;;
27013;SDS011;14556;52.222;4.510;2022-11-15T09:12:27;24.27;;;9.20;;
27013;SDS011;14556;52.222;4.510;2022-11-15T09:14:53;27.07;;;10.67;;
27013;SDS011;14556;52.222;4.510;2022-11-15T09:17:20;20.10;;;8.37;;
27013;SDS011;14556;52.222;4.510;2022-11-15T09:19:50;22.00;;;8.87;;
27013;SDS011;14556;52.222;4.510;2022-11-15T09:22:16;18.20;;;8.87;;
27013;SDS011;14556;52.222;4.510;2022-11-15T09:24:44;20.67;;;8.60;;
27013;SDS011;14556;52.222;4.510;2022-11-15T09:27:10;17.67;;;9.10;;
27013;SDS011;14556;52.222;4.510;2022-11-15T09:29:36;23.20;;;9.53;;
27013;SDS011;14556;52.222;4.510;2022-11-15T09:32:03;28.17;;;9.17;;
27013;SDS011;14556;52.222;4.510;2022-11-15T09:34:30;19.07;;;8.73;;
27013;SDS011;14556;52.222;4.510;2022-11-15T09:36:56;22.10;;;8.63;;
27013;SDS011;14556;52.222;4.510;2022-11-15T09:39:23;16.73;;;8.07;;
27013;SDS011;14556;52.222;4.510;2022-11-15T09:44:42;14.37;;;7.87;;
27013;SDS011;14556;52.222;4.510;2022-11-15T09:47:47;15.43;;;7.30;;
27013;SDS011;14556;52.222;4.510;2022-11-15T09:50:28;14.73;;;6.63;;
27013;SDS011;14556;52.222;4.510;2022-11-15T09:53:00;17.87;;;6.70;;
27013;SDS011;14556;52.222;4.510;2022-11-15T09:55:31;15.60;;;6.67;;
27013;SDS011;14556;52.222;4.510;2022-11-15T09:58:45;12.83;;;7.33;;
27013;SDS011;14556;52.222;4.510;2022-11-15T10:01:04;11.33;;;5.07;;
27013;SDS011;14556;52.222;4.510;2022-11-15T10:03:36;13.53;;;6.40;;
27013;SDS011;14556;52.222;4.510;2022-11-15T10:06:08;10.73;;;6.70;;
27013;SDS011;14556;52.222;4.510;2022-11-15T10:08:46;14.90;;;6.20;;
27013;SDS011;14556;52.222;4.510;2022-11-15T10:11:20;17.00;;;5.87;;
27013;SDS011;14556;52.222;4.510;2022-11-15T10:14:09;16.40;;;5.90;;
27013;SDS011;14556;52.222;4.510;2022-11-15T10:19:38;10.87;;;5.73;;
27013;SDS011;14556;52.222;4.510;2022-11-15T10:24:48;9.20;;;4.83;;
27013;SDS011;14556;52.222;4.510;2022-11-15T10:27:18;12.50;;;4.60;;
27013;SDS011;14556;52.222;4.510;2022-11-15T10:29:46;9.50;;;4.13;;
27013;SDS011;14556;52.222;4.510;2022-11-15T10:32:15;6.20;;;4.07;;
27013;SDS011;14556;52.222;4.510;2022-11-15T10:34:44;6.90;;;3.87;;
27013;SDS011;14556;52.222;4.510;2022-11-15T10:37:11;5.40;;;3.40;;
27013;SDS011;14556;52.222;4.510;2022-11-15T10:39:37;7.60;;;3.03;;
27013;SDS011;14556;52.222;4.510;2022-11-15T10:44:44;8.73;;;2.90;;
27013;SDS011;14556;52.222;4.510;2022-11-15T10:50:06;8.00;;;3.10;;
27013;SDS011;14556;52.222;4.510;2022-11-15T10:52:51;5.73;;;3.03;;
27013;SDS011;14556;52.222;4.510;2022-11-15T10:55:22;10.73;;;2.90;;
27013;SDS011;14556;52.222;4.510;2022-11-15T10:57:53;7.57;;;2.07;;
27013;SDS011;14556;52.222;4.510;2022-11-15T11:02:59;5.70;;;2.07;;
27013;SDS011;14556;52.222;4.510;2022-11-15T11:05:29;6.33;;;2.30;;
27013;SDS011;14556;52.222;4.510;2022-11-15T11:10:39;6.90;;;2.10;;
27013;SDS011;14556;52.222;4.510;2022-11-15T11:13:30;6.00;;;2.63;;
27013;SDS011;14556;52.222;4.510;2022-11-15T11:18:33;4.73;;;2.17;;
27013;SDS011;14556;52.222;4.510;2022-11-15T11:24:18;5.93;;;1.77;;
27013;SDS011;14556;52.222;4.510;2022-11-15T11:26:58;6.37;;;2.73;;
27013;SDS011;14556;52.222;4.510;2022-11-15T11:35:14;5.20;;;1.90;;
27013;SDS011;14556;52.222;4.510;2022-11-15T11:37:49;6.03;;;2.07;;
27013;SDS011;14556;52.222;4.510;2022-11-15T11:40:29;4.67;;;1.87;;
27013;SDS011;14556;52.222;4.510;2022-11-15T11:43:16;3.63;;;1.90;;
27013;SDS011;14556;52.222;4.510;2022-11-15T11:48:45;4.13;;;1.83;;
27013;SDS011;14556;52.222;4.510;2022-11-15T11:51:18;6.27;;;2.10;;
27013;SDS011;14556;52.222;4.510;2022-11-15T11:53:57;10.50;;;1.90;;
27013;SDS011;14556;52.222;4.510;2022-11-15T11:56:33;6.50;;;1.90;;
27013;SDS011;14556;52.222;4.510;2022-11-15T11:59:14;8.10;;;2.03;;
27013;SDS011;14556;52.222;4.510;2022-11-15T12:01:47;3.43;;;1.60;;
27013;SDS011;14556;52.222;4.510;2022-11-15T12:06:48;6.53;;;1.53;;
27013;SDS011;14556;52.222;4.510;2022-11-15T12:12:11;10.27;;;1.97;;
27013;SDS011;14556;52.222;4.510;2022-11-15T12:18:14;12.93;;;2.73;;
27013;SDS011;14556;52.222;4.510;2022-11-15T12:20:49;5.73;;;1.73;;
27013;SDS011;14556;52.222;4.510;2022-11-15T12:23:27;8.17;;;2.07;;
27013;SDS011;14556;52.222;4.510;2022-11-15T12:26:20;6.27;;;1.63;;
27013;SDS011;14556;52.222;4.510;2022-11-15T12:28:58;3.77;;;1.60;;
27013;SDS011;14556;52.222;4.510;2022-11-15T12:34:01;2.17;;;1.30;;
27013;SDS011;14556;52.222;4.510;2022-11-15T12:36:37;3.27;;;0.97;;
27013;SDS011;14556;52.222;4.510;2022-11-15T12:39:08;3.60;;;1.80;;
27013;SDS011;14556;52.222;4.510;2022-11-15T12:41:40;3.70;;;1.20;;
27013;SDS011;14556;52.222;4.510;2022-11-15T12:59:53;2.10;;;1.03;;
27013;SDS011;14556;52.222;4.510;2022-11-15T13:12:57;3.70;;;0.97;;
27013;SDS011;14556;52.222;4.510;2022-11-15T13:21:18;4.67;;;1.00;;
27013;SDS011;14556;52.222;4.510;2022-11-15T13:24:09;4.23;;;0.80;;
27013;SDS011;14556;52.222;4.510;2022-11-15T13:26:39;7.53;;;1.20;;
27013;SDS011;14556;52.222;4.510;2022-11-15T13:29:14;3.70;;;0.80;;
27013;SDS011;14556;52.222;4.510;2022-11-15T13:31:42;3.20;;;0.90;;
27013;SDS011;14556;52.222;4.510;2022-11-15T13:34:29;4.33;;;1.10;;
27013;SDS011;14556;52.222;4.510;2022-11-15T13:39:46;5.90;;;1.20;;
27013;SDS011;14556;52.222;4.510;2022-11-15T13:42:17;6.00;;;1.33;;
27013;SDS011;14556;52.222;4.510;2022-11-15T13:44:56;6.57;;;1.17;;
27013;SDS011;14556;52.222;4.510;2022-11-15T13:47:24;4.27;;;1.10;;
27013;SDS011;14556;52.222;4.510;2022-11-15T13:49:59;6.03;;;1.40;;
27013;SDS011;14556;52.222;4.510;2022-11-15T13:52:28;2.13;;;1.17;;
27013;SDS011;14556;52.222;4.510;2022-11-15T13:54:59;6.20;;;1.30;;
27013;SDS011;14556;52.222;4.510;2022-11-15T13:57:35;7.80;;;1.27;;
27013;SDS011;14556;52.222;4.510;2022-11-15T14:00:27;1.40;;;0.87;;
27013;SDS011;14556;52.222;4.510;2022-11-15T14:03:11;5.43;;;1.00;;
27013;SDS011;14556;52.222;4.510;2022-11-15T14:08:29;8.07;;;0.93;;
27013;SDS011;14556;52.222;4.510;2022-11-15T14:13:35;3.23;;;1.07;;
27013;SDS011;14556;52.222;4.510;2022-11-15T14:21:11;6.03;;;0.93;;
27013;SDS011;14556;52.222;4.510;2022-11-15T14:23:37;3.97;;;1.07;;
27013;SDS011;14556;52.222;4.510;2022-11-15T14:26:04;3.10;;;0.80;;
27013;SDS011;14556;52.222;4.510;2022-11-15T14:28:37;9.33;;;1.10;;
27013;SDS011;14556;52.222;4.510;2022-11-15T14:31:09;4.10;;;1.00;;
27013;SDS011;14556;52.222;4.510;2022-11-15T14:33:39;3.30;;;1.00;;
27013;SDS011;14556;52.222;4.510;2022-11-15T14:36:10;3.17;;;1.13;;
27013;SDS011;14556;52.222;4.510;2022-11-15T14:38:38;4.87;;;1.30;;
27013;SDS011;14556;52.222;4.510;2022-11-15T14:41:05;3.97;;;0.63;;
27013;SDS011;14556;52.222;4.510;2022-11-15T14:43:43;2.60;;;1.20;;
27013;SDS011;14556;52.222;4.510;2022-11-15T14:46:10;2.33;;;0.73;;
27013;SDS011;14556;52.222;4.510;2022-11-15T14:48:36;3.93;;;0.73;;
27013;SDS011;14556;52.222;4.510;2022-11-15T14:51:02;2.40;;;0.70;;
27013;SDS011;14556;52.222;4.510;2022-11-15T14:53:29;4.63;;;1.03;;
27013;SDS011;14556;52.222;4.510;2022-11-15T14:55:57;6.33;;;1.20;;
27013;SDS011;14556;52.222;4.510;2022-11-15T14:58:24;2.13;;;0.90;;
27013;SDS011;14556;52.222;4.510;2022-11-15T15:00:50;2.63;;;0.93;;
27013;SDS011;14556;52.222;4.510;2022-11-15T15:03:17;5.03;;;1.03;;
27013;SDS011;14556;52.222;4.510;2022-11-15T15:05:43;4.00;;;1.33;;
27013;SDS011;14556;52.222;4.510;2022-11-15T15:08:11;5.23;;;1.00;;
27013;SDS011;14556;52.222;4.510;2022-11-15T15:10:40;4.20;;;0.80;;
27013;SDS011;14556;52.222;4.510;2022-11-15T15:13:12;3.27;;;0.60;;
27013;SDS011;14556;52.222;4.510;2022-11-15T15:15:50;2.73;;;0.80;;
27013;SDS011;14556;52.222;4.510;2022-11-15T15:18:18;2.87;;;0.90;;
27013;SDS011;14556;52.222;4.510;2022-11-15T15:20:54;3.57;;;1.10;;
27013;SDS011;14556;52.222;4.510;2022-11-15T15:23:23;3.50;;;1.03;;
27013;SDS011;14556;52.222;4.510;2022-11-15T15:25:51;2.30;;;0.70;;
27013;SDS011;14556;52.222;4.510;2022-11-15T15:28:18;2.03;;;0.97;;
27013;SDS011;14556;52.222;4.510;2022-11-15T15:30:45;3.47;;;1.20;;
27013;SDS011;14556;52.222;4.510;2022-11-15T15:33:11;3.17;;;1.00;;
27013;SDS011;14556;52.222;4.510;2022-11-15T15:35:38;3.07;;;0.93;;
27013;SDS011;14556;52.222;4.510;2022-11-15T15:38:05;5.03;;;0.90;;
27013;SDS011;14556;52.222;4.510;2022-11-15T15:40:31;2.00;;;1.00;;
27013;SDS011;14556;52.222;4.510;2022-11-15T15:42:59;1.97;;;1.17;;
27013;SDS011;14556;52.222;4.510;2022-11-15T15:45:26;3.07;;;0.80;;
27013;SDS011;14556;52.222;4.510;2022-11-15T15:47:53;2.67;;;0.80;;
27013;SDS011;14556;52.222;4.510;2022-11-15T15:50:31;3.03;;;1.47;;
27013;SDS011;14556;52.222;4.510;2022-11-15T15:53:00;5.10;;;0.90;;
27013;SDS011;14556;52.222;4.510;2022-11-15T15:55:28;3.07;;;1.13;;
27013;SDS011;14556;52.222;4.510;2022-11-15T15:57:55;4.30;;;0.97;;
27013;SDS011;14556;52.222;4.510;2022-11-15T16:00:22;6.30;;;1.10;;
27013;SDS011;14556;52.222;4.510;2022-11-15T16:02:51;2.87;;;1.10;;
27013;SDS011;14556;52.222;4.510;2022-11-15T16:05:18;4.93;;;1.40;;
27013;SDS011;14556;52.222;4.510;2022-11-15T16:07:45;1.43;;;1.10;;
27013;SDS011;14556;52.222;4.510;2022-11-15T16:10:29;2.43;;;0.87;;
27013;SDS011;14556;52.222;4.510;2022-11-15T16:12:58;3.07;;;1.10;;
27013;SDS011;14556;52.222;4.510;2022-11-15T16:15:26;5.63;;;1.40;;
27013;SDS011;14556;52.222;4.510;2022-11-15T16:17:58;3.07;;;1.10;;
27013;SDS011;14556;52.222;4.510;2022-11-15T16:20:31;4.53;;;1.67;;
27013;SDS011;14556;52.222;4.510;2022-11-15T16:23:00;4.43;;;1.70;;
27013;SDS011;14556;52.222;4.510;2022-11-15T16:25:38;4.90;;;1.50;;
27013;SDS011;14556;52.222;4.510;2022-11-15T16:28:26;3.77;;;1.40;;
27013;SDS011;14556;52.222;4.510;2022-11-15T16:33:27;2.03;;;1.40;;
27013;SDS011;14556;52.222;4.510;2022-11-15T16:35:54;6.17;;;1.00;;
27013;SDS011;14556;52.222;4.510;2022-11-15T16:38:20;3.10;;;1.20;;
27013;SDS011;14556;52.222;4.510;2022-11-15T16:40:48;2.87;;;1.30;;
27013;SDS011;14556;52.222;4.510;2022-11-15T16:43:14;3.43;;;1.60;;
27013;SDS011;14556;52.222;4.510;2022-11-15T16:45:42;3.13;;;1.30;;
27013;SDS011;14556;52.222;4.510;2022-11-15T16:48:15;5.33;;;1.40;;
27013;SDS011;14556;52.222;4.510;2022-11-15T16:50:47;3.20;;;1.60;;
27013;SDS011;14556;52.222;4.510;2022-11-15T16:53:14;3.83;;;1.70;;